createdAt,value
2023-01-20T00:02:07.602Z,8.87
2023-01-20T00:04:35.521Z,9.43
2023-01-20T00:07:03.407Z,17.20
2023-01-20T00:09:31.320Z,10.07
2023-01-20T00:11:59.211Z,9.83
2023-01-20T00:14:27.782Z,10.33
2023-01-20T00:16:57.764Z,13.27
2023-01-20T00:19:27.304Z,12.00
2023-01-20T00:21:55.215Z,10.33
2023-01-20T00:24:23.113Z,8.67
2023-01-20T00:26:51.003Z,11.53
2023-01-20T00:29:18.808Z,8.07
2023-01-20T00:31:46.707Z,8.63
2023-01-20T00:34:14.538Z,9.47
2023-01-20T00:36:44.054Z,10.50
2023-01-20T00:39:12.010Z,13.43
2023-01-20T00:41:39.975Z,11.70
2023-01-20T00:44:07.950Z,12.77
2023-01-20T00:46:35.897Z,12.47
2023-01-20T00:49:03.901Z,11.73
2023-01-20T00:51:31.801Z,9.87
2023-01-20T00:54:01.055Z,10.73
2023-01-20T00:56:28.923Z,9.23
2023-01-20T00:58:56.827Z,10.77
2023-01-20T01:01:25.288Z,10.90
2023-01-20T01:03:54.193Z,10.73
2023-01-20T01:06:25.875Z,13.70
2023-01-20T01:08:53.916Z,11.53
2023-01-20T01:11:23.178Z,13.57
2023-01-20T01:13:51.085Z,13.23
2023-01-20T01:16:19.027Z,11.25
2023-01-20T01:18:47.059Z,14.77
2023-01-20T01:21:17.893Z,11.37
2023-01-20T01:23:46.975Z,9.90
2023-01-20T01:26:15.399Z,10.63
2023-01-20T01:28:44.703Z,12.37
2023-01-20T01:31:12.620Z,10.70
2023-01-20T01:33:40.578Z,11.00
2023-01-20T01:36:13.109Z,12.50
2023-01-20T01:38:41.167Z,12.90
2023-01-20T01:41:10.451Z,10.27
2023-01-20T01:43:39.530Z,10.10
2023-01-20T01:46:08.835Z,9.50
2023-01-20T01:48:40.976Z,10.80
2023-01-20T01:51:14.731Z,12.70
2023-01-20T01:53:46.530Z,11.33
2023-01-20T01:56:18.007Z,10.33
2023-01-20T01:58:49.361Z,9.20
2023-01-20T02:01:19.398Z,14.83
2023-01-20T02:03:53.757Z,9.97
2023-01-20T02:06:23.872Z,11.35
2023-01-20T02:08:53.015Z,13.73
2023-01-20T02:11:21.044Z,13.10
2023-01-20T02:13:49.123Z,12.43
2023-01-20T02:16:24.817Z,12.00
2023-01-20T02:19:03.263Z,9.23
2023-01-20T02:22:04.791Z,11.03
2023-01-20T02:25:09.163Z,8.68
2023-01-20T02:28:18.601Z,9.85
2023-01-20T02:31:17.266Z,11.75
2023-01-20T02:33:51.212Z,13.05
2023-01-20T02:36:27.859Z,11.25
2023-01-20T02:38:58.847Z,11.30
2023-01-20T02:41:35.683Z,11.98
2023-01-20T02:44:11.746Z,13.35
2023-01-20T02:46:42.945Z,11.05
2023-01-20T02:49:17.384Z,12.38
2023-01-20T02:51:51.415Z,9.10
2023-01-20T02:54:22.308Z,10.73
2023-01-20T02:56:52.604Z,8.57
2023-01-20T02:59:26.100Z,10.40
2023-01-20T03:01:58.651Z,12.68
2023-01-20T03:04:30.674Z,10.05
2023-01-20T03:07:00.934Z,10.00
2023-01-20T03:09:32.423Z,12.93
2023-01-20T03:12:04.947Z,11.13
2023-01-20T03:14:32.975Z,12.30
2023-01-20T03:17:02.314Z,13.18
2023-01-20T03:19:32.918Z,14.27
2023-01-20T03:22:00.817Z,12.63
2023-01-20T03:24:31.926Z,13.48
2023-01-20T03:27:01.005Z,12.10
2023-01-20T03:29:30.556Z,13.10
2023-01-20T03:32:00.632Z,12.52
2023-01-20T03:34:34.468Z,12.52
2023-01-20T03:37:04.175Z,12.07
2023-01-20T03:39:33.740Z,15.18
2023-01-20T03:42:08.748Z,10.98
2023-01-20T03:44:53.278Z,9.52
2023-01-20T03:47:30.540Z,10.70
2023-01-20T03:50:07.809Z,10.73
2023-01-20T03:52:48.099Z,16.03
2023-01-20T03:55:22.475Z,13.37
2023-01-20T03:57:55.211Z,9.02
2023-01-20T04:00:24.929Z,11.45
2023-01-20T04:02:54.549Z,11.13
2023-01-20T04:05:24.174Z,10.67
2023-01-20T04:07:53.910Z,9.97
2023-01-20T04:10:22.460Z,13.40
2023-01-20T04:12:50.470Z,10.23
2023-01-20T04:15:19.724Z,15.47
2023-01-20T04:17:47.727Z,12.88
2023-01-20T04:20:16.845Z,13.03
2023-01-20T04:22:51.566Z,9.73
2023-01-20T04:25:25.966Z,13.13
2023-01-20T04:27:53.900Z,10.15
2023-01-20T04:30:21.856Z,12.13
2023-01-20T04:32:49.810Z,11.57
2023-01-20T04:35:19.757Z,13.80
2023-01-20T04:37:49.031Z,13.07
2023-01-20T04:40:17.241Z,11.23
2023-01-20T04:42:45.126Z,13.60
2023-01-20T04:45:16.734Z,10.57
2023-01-20T04:47:45.383Z,13.67
2023-01-20T04:50:15.104Z,11.37
2023-01-20T04:52:43.351Z,13.93
2023-01-20T04:55:13.665Z,14.33
2023-01-20T04:57:42.100Z,14.87
2023-01-20T05:00:12.256Z,10.50
2023-01-20T05:02:40.581Z,14.13
2023-01-20T05:05:09.385Z,11.50
2023-01-20T05:07:37.313Z,13.83
2023-01-20T05:10:05.913Z,16.20
2023-01-20T05:12:35.141Z,13.07
2023-01-20T05:15:03.053Z,12.50
2023-01-20T05:17:30.895Z,13.27
2023-01-20T05:19:58.814Z,16.20
2023-01-20T05:22:26.733Z,14.67
2023-01-20T05:24:54.646Z,17.20
2023-01-20T05:27:22.537Z,13.63
2023-01-20T05:29:51.862Z,15.37
2023-01-20T05:32:19.776Z,12.73
2023-01-20T05:34:47.677Z,14.67
2023-01-20T05:37:18.128Z,15.83
2023-01-20T05:39:46.027Z,12.50
2023-01-20T05:42:13.884Z,13.90
2023-01-20T05:44:41.706Z,15.43
2023-01-20T05:47:11.239Z,13.87
2023-01-20T05:49:39.108Z,11.87
2023-01-20T05:52:07.009Z,12.60
2023-01-20T05:54:34.852Z,12.33
2023-01-20T05:57:04.227Z,10.90
2023-01-20T05:59:32.144Z,10.27
2023-01-20T06:02:00.053Z,12.53
2023-01-20T06:04:29.586Z,10.97
2023-01-20T06:06:57.525Z,12.57
2023-01-20T06:09:25.602Z,9.87
2023-01-20T06:11:53.530Z,9.87
2023-01-20T06:14:21.447Z,14.50
2023-01-20T06:16:49.388Z,10.87
2023-01-20T06:19:17.328Z,10.07
2023-01-20T06:21:48.226Z,7.93
2023-01-20T06:24:16.284Z,9.03
2023-01-20T06:26:44.154Z,8.50
2023-01-20T06:29:12.089Z,7.57
2023-01-20T06:31:40.053Z,9.83
2023-01-20T06:34:07.960Z,7.60
2023-01-20T06:36:35.993Z,10.03
2023-01-20T06:39:05.465Z,9.00
2023-01-20T06:41:34.950Z,6.03
2023-01-20T06:44:03.014Z,12.27
2023-01-20T06:46:30.973Z,13.83
2023-01-20T06:49:00.655Z,10.13
2023-01-20T06:51:30.111Z,7.80
2023-01-20T06:53:58.774Z,7.87
2023-01-20T06:56:28.075Z,11.83
2023-01-20T06:58:56.025Z,8.63
2023-01-20T07:01:26.093Z,8.60
2023-01-20T07:03:54.513Z,7.50
2023-01-20T07:06:28.172Z,11.47
2023-01-20T07:08:58.777Z,10.50
2023-01-20T07:11:28.703Z,6.57
2023-01-20T07:13:56.688Z,8.00
2023-01-20T07:16:24.856Z,9.43
2023-01-20T07:18:53.810Z,7.47
2023-01-20T07:21:23.938Z,10.17
2023-01-20T07:23:53.224Z,7.20
2023-01-20T07:26:22.491Z,6.13
2023-01-20T07:28:52.009Z,7.23
2023-01-20T07:31:22.291Z,9.53
2023-01-20T07:33:50.393Z,9.33
2023-01-20T07:36:19.047Z,9.23
2023-01-20T07:38:49.353Z,6.93
2023-01-20T07:41:19.674Z,11.30
2023-01-20T07:43:49.750Z,11.10
2023-01-20T07:46:19.766Z,10.57
2023-01-20T07:48:47.890Z,9.73
2023-01-20T07:51:17.173Z,8.17
2023-01-20T07:53:46.769Z,9.00
2023-01-20T07:56:16.730Z,9.00
2023-01-20T07:58:45.839Z,8.37
2023-01-20T08:01:15.877Z,10.90
2023-01-20T08:03:45.819Z,11.03
2023-01-20T08:06:15.867Z,12.27
2023-01-20T08:08:43.915Z,10.23
2023-01-20T08:11:14.007Z,10.87
2023-01-20T08:13:42.123Z,8.47
2023-01-20T08:16:12.824Z,8.37
2023-01-20T08:18:42.417Z,8.30
2023-01-20T08:21:19.796Z,10.10
2023-01-20T08:23:47.921Z,14.07
2023-01-20T08:26:16.556Z,8.70
2023-01-20T08:28:44.688Z,14.23
2023-01-20T08:31:15.342Z,8.47
2023-01-20T08:33:44.453Z,9.90
2023-01-20T08:36:15.394Z,8.57
2023-01-20T08:38:43.767Z,8.43
2023-01-20T08:41:13.679Z,9.93
2023-01-20T08:43:41.651Z,9.00
2023-01-20T08:46:11.444Z,5.93
2023-01-20T08:48:40.540Z,6.53
2023-01-20T08:51:10.667Z,11.63
2023-01-20T08:53:39.934Z,9.63
2023-01-20T08:56:08.507Z,9.03
2023-01-20T08:58:36.456Z,9.17
2023-01-20T09:01:09.939Z,6.40
2023-01-20T09:03:37.915Z,7.40
2023-01-20T09:06:07.033Z,9.37
2023-01-20T09:08:34.931Z,10.27
2023-01-20T09:11:05.692Z,7.70
2023-01-20T09:13:33.781Z,10.77
2023-01-20T09:16:01.957Z,8.20
2023-01-20T09:18:29.900Z,7.77
2023-01-20T09:20:59.114Z,8.13
2023-01-20T09:23:27.647Z,10.00
2023-01-20T09:25:55.965Z,9.43
2023-01-20T09:28:25.230Z,8.00
2023-01-20T09:30:58.992Z,12.83
2023-01-20T09:33:27.009Z,10.30
2023-01-20T09:35:57.771Z,6.73
2023-01-20T09:38:44.141Z,7.47
2023-01-20T09:41:35.694Z,10.03
2023-01-20T09:44:18.701Z,5.60
2023-01-20T09:47:16.413Z,5.97
2023-01-20T09:50:15.414Z,7.30
2023-01-20T09:53:03.238Z,6.67
2023-01-20T09:55:40.187Z,9.00
2023-01-20T09:58:16.271Z,6.60
2023-01-20T10:00:50.678Z,7.37
2023-01-20T10:03:23.047Z,8.03
2023-01-20T10:05:57.243Z,7.27
2023-01-20T10:08:34.188Z,5.67
2023-01-20T10:11:07.760Z,7.13
2023-01-20T10:13:47.308Z,11.50
2023-01-20T10:16:26.898Z,13.53
2023-01-20T10:19:01.268Z,7.37
2023-01-20T10:21:34.195Z,7.03
2023-01-20T10:24:08.515Z,8.17
2023-01-20T10:26:43.971Z,6.73
2023-01-20T10:29:18.559Z,11.03
2023-01-20T10:31:55.358Z,7.53
2023-01-20T10:34:23.480Z,8.20
2023-01-20T10:36:59.568Z,11.93
2023-01-20T10:39:33.709Z,7.27
2023-01-20T10:42:07.702Z,6.77
2023-01-20T10:44:36.484Z,8.37
2023-01-20T10:47:25.970Z,9.33
2023-01-20T10:50:23.736Z,8.53
2023-01-20T10:53:06.338Z,7.70
2023-01-20T10:55:45.558Z,7.27
2023-01-20T10:58:19.249Z,6.90
2023-01-20T11:00:47.231Z,10.80
2023-01-20T11:03:18.863Z,10.93
2023-01-20T11:05:48.876Z,12.77
2023-01-20T11:08:18.623Z,10.77
2023-01-20T11:10:51.677Z,8.97
2023-01-20T11:13:19.573Z,10.53
2023-01-20T11:15:50.513Z,10.23
2023-01-20T11:18:31.157Z,10.93
2023-01-20T11:21:02.254Z,9.47
2023-01-20T11:23:39.855Z,10.60
2023-01-20T11:26:10.958Z,10.70
2023-01-20T11:28:49.284Z,12.37
2023-01-20T11:31:18.058Z,7.80
2023-01-20T11:34:03.031Z,11.20
2023-01-20T11:36:31.168Z,7.67
2023-01-20T11:38:59.093Z,8.17
2023-01-20T11:41:28.561Z,11.13
2023-01-20T11:43:58.070Z,11.87
2023-01-20T11:46:31.208Z,10.17
2023-01-20T11:49:16.851Z,10.57
2023-01-20T11:51:50.922Z,12.47
2023-01-20T11:54:22.574Z,7.00
2023-01-20T11:56:55.006Z,10.00
2023-01-20T11:59:28.215Z,11.83
2023-01-20T12:02:00.344Z,9.57
2023-01-20T12:04:48.991Z,8.70
2023-01-20T12:07:23.374Z,9.03
2023-01-20T12:09:55.037Z,11.50
2023-01-20T12:12:32.313Z,14.47
2023-01-20T12:15:06.055Z,6.40
2023-01-20T12:17:44.934Z,13.20
2023-01-20T12:20:21.774Z,8.63
2023-01-20T12:23:00.027Z,8.47
2023-01-20T12:25:30.978Z,8.87
2023-01-20T12:28:04.007Z,8.77
2023-01-20T12:30:51.529Z,10.23
2023-01-20T12:33:23.498Z,7.67
2023-01-20T12:36:16.819Z,10.17
2023-01-20T12:38:58.191Z,8.30
2023-01-20T12:41:49.543Z,6.03
2023-01-20T12:44:24.707Z,10.33
2023-01-20T12:46:58.767Z,7.50
2023-01-20T12:49:37.356Z,6.87
2023-01-20T12:52:23.860Z,10.67
2023-01-20T12:55:03.333Z,10.37
2023-01-20T12:57:52.490Z,8.43
2023-01-20T13:00:47.108Z,7.37
2023-01-20T13:03:36.647Z,8.93
2023-01-20T13:06:23.306Z,12.50
2023-01-20T13:09:02.437Z,9.10
2023-01-20T13:11:41.855Z,13.17
2023-01-20T13:14:15.393Z,13.07
2023-01-20T13:16:49.971Z,14.33
2023-01-20T13:19:29.499Z,11.03
2023-01-20T13:22:07.929Z,13.97
2023-01-20T13:24:37.940Z,10.07
2023-01-20T13:27:06.323Z,12.10
2023-01-20T13:29:44.077Z,13.77
2023-01-20T13:32:30.733Z,12.60
2023-01-20T13:34:59.611Z,8.40
2023-01-20T13:37:33.236Z,10.50
2023-01-20T13:40:02.976Z,10.90
2023-01-20T13:42:53.380Z,8.30
2023-01-20T13:45:27.564Z,11.60
2023-01-20T13:48:22.120Z,14.57
2023-01-20T13:50:51.749Z,11.50
2023-01-20T13:53:29.004Z,12.93
2023-01-20T13:56:00.467Z,9.50
2023-01-20T13:58:31.448Z,13.83
2023-01-20T14:01:00.594Z,12.27
2023-01-20T14:03:31.283Z,9.10
2023-01-20T14:06:01.443Z,8.83
2023-01-20T14:08:31.584Z,11.93
2023-01-20T14:11:12.247Z,12.30
2023-01-20T14:13:41.317Z,13.53
2023-01-20T14:16:20.194Z,15.60
2023-01-20T14:18:49.706Z,11.13
2023-01-20T14:21:21.515Z,11.43
2023-01-20T14:23:51.107Z,13.00
2023-01-20T14:26:25.763Z,13.97
2023-01-20T14:28:55.240Z,13.40
2023-01-20T14:31:37.505Z,11.30
2023-01-20T14:34:23.473Z,10.03
2023-01-20T14:36:52.701Z,9.80
2023-01-20T14:39:23.348Z,12.97
2023-01-20T14:41:54.686Z,13.13
2023-01-20T14:44:24.530Z,12.50
2023-01-20T14:46:54.246Z,11.90
2023-01-20T14:49:25.351Z,10.80
2023-01-20T14:51:54.059Z,12.07
2023-01-20T14:54:46.318Z,10.47
2023-01-20T14:57:24.953Z,8.07
2023-01-20T15:00:20.285Z,9.60
2023-01-20T15:03:01.373Z,9.67
2023-01-20T15:05:38.870Z,11.70
2023-01-20T15:08:25.508Z,11.53
2023-01-20T15:11:24.059Z,11.80
2023-01-20T15:14:13.265Z,14.97
2023-01-20T15:16:49.700Z,12.97
2023-01-20T15:19:32.226Z,14.63
2023-01-20T15:22:21.648Z,10.77
2023-01-20T15:24:50.784Z,12.80
2023-01-20T15:27:27.442Z,12.60
2023-01-20T15:30:18.660Z,14.43
2023-01-20T15:32:48.924Z,12.73
2023-01-20T15:35:19.973Z,11.97
2023-01-20T15:37:48.314Z,12.17
2023-01-20T15:40:18.529Z,12.63
2023-01-20T15:42:47.357Z,14.67
2023-01-20T15:45:17.722Z,13.63
2023-01-20T15:47:49.799Z,18.57
2023-01-20T15:50:20.204Z,17.43
2023-01-20T15:52:48.544Z,12.80
2023-01-20T15:55:18.064Z,14.60
2023-01-20T15:57:54.060Z,15.07
2023-01-20T16:00:24.946Z,14.17
2023-01-20T16:02:52.996Z,14.90
2023-01-20T16:05:21.218Z,15.10
2023-01-20T16:07:50.657Z,14.03
2023-01-20T16:10:20.007Z,12.17
2023-01-20T16:12:48.791Z,16.60
2023-01-20T16:15:18.602Z,13.17
2023-01-20T16:17:49.103Z,11.57
2023-01-20T16:20:22.123Z,12.87
2023-01-20T16:22:50.156Z,10.53
2023-01-20T16:25:18.182Z,12.40
2023-01-20T16:27:46.195Z,20.33
2023-01-20T16:30:17.193Z,13.80
2023-01-20T16:32:47.245Z,14.23
2023-01-20T16:35:16.745Z,11.67
2023-01-20T16:37:46.440Z,14.37
2023-01-20T16:40:16.241Z,14.30
2023-01-20T16:42:44.468Z,11.77
2023-01-20T16:45:23.073Z,10.93
2023-01-20T16:47:52.526Z,9.93
2023-01-20T16:50:20.948Z,12.43
2023-01-20T16:52:49.077Z,11.97
2023-01-20T16:55:17.058Z,11.60
2023-01-20T16:57:45.136Z,11.77
2023-01-20T17:00:18.516Z,13.47
2023-01-20T17:02:53.221Z,10.23
2023-01-20T17:05:25.422Z,11.33
2023-01-20T17:07:54.492Z,9.87
2023-01-20T17:10:22.429Z,9.67
2023-01-20T17:12:52.216Z,9.47
2023-01-20T17:15:20.419Z,8.80
2023-01-20T17:17:49.643Z,8.53
2023-01-20T17:20:19.597Z,9.47
2023-01-20T17:22:47.655Z,11.00
2023-01-20T17:25:17.902Z,8.33
2023-01-20T17:27:46.070Z,9.20
2023-01-20T17:30:15.299Z,9.23
2023-01-20T17:32:47.137Z,11.73
2023-01-20T17:35:15.576Z,9.13
2023-01-20T17:37:45.036Z,8.07
2023-01-20T17:40:13.911Z,7.50
2023-01-20T17:42:43.571Z,7.73
2023-01-20T17:45:12.596Z,9.13
2023-01-20T17:47:40.512Z,9.53
2023-01-20T17:50:09.240Z,8.43
2023-01-20T17:52:37.231Z,7.47
2023-01-20T17:55:07.234Z,8.20
2023-01-20T17:57:35.081Z,10.00
2023-01-20T18:00:03.970Z,8.90
2023-01-20T18:02:31.850Z,8.83
2023-01-20T18:05:06.963Z,8.30
2023-01-20T18:07:34.853Z,8.20
2023-01-20T18:10:02.824Z,8.57
2023-01-20T18:12:32.212Z,8.23
2023-01-20T18:15:00.184Z,8.80
2023-01-20T18:17:28.056Z,10.10
2023-01-20T18:19:57.401Z,8.00
2023-01-20T18:22:25.443Z,8.43
2023-01-20T18:24:53.399Z,8.27
2023-01-20T18:27:23.454Z,8.27
2023-01-20T18:29:52.707Z,8.50
2023-01-20T18:32:20.604Z,10.53
2023-01-20T18:34:48.425Z,11.00
2023-01-20T18:37:16.380Z,9.13
2023-01-20T18:39:44.301Z,11.57
2023-01-20T18:42:12.357Z,8.80
2023-01-20T18:44:40.258Z,10.67
2023-01-20T18:47:09.505Z,9.87
2023-01-20T18:49:37.346Z,8.43
2023-01-20T18:52:05.692Z,11.07
2023-01-20T18:54:34.311Z,8.60
2023-01-20T18:57:03.275Z,11.97
2023-01-20T18:59:31.122Z,10.10
2023-01-20T19:01:59.495Z,10.83
2023-01-20T19:04:29.861Z,9.70
2023-01-20T19:06:57.728Z,13.27
2023-01-20T19:09:25.654Z,12.17
2023-01-20T19:11:54.022Z,10.93
2023-01-20T19:14:21.952Z,10.30
2023-01-20T19:16:49.926Z,12.73
2023-01-20T19:19:19.014Z,11.50
2023-01-20T19:21:51.240Z,11.17
2023-01-20T19:24:21.393Z,9.97
2023-01-20T19:26:49.844Z,11.37
2023-01-20T19:29:18.926Z,10.17
2023-01-20T19:31:47.358Z,11.60
2023-01-20T19:34:16.027Z,12.13
2023-01-20T19:36:43.871Z,10.90
2023-01-20T19:39:13.154Z,10.97
2023-01-20T19:41:40.991Z,11.47
2023-01-20T19:44:09.101Z,10.03
2023-01-20T19:46:39.618Z,10.70
2023-01-20T19:49:08.309Z,14.27
2023-01-20T19:51:36.882Z,11.90
2023-01-20T19:54:06.218Z,14.33
2023-01-20T19:56:36.597Z,15.23
2023-01-20T19:59:06.236Z,13.93
2023-01-20T20:01:36.642Z,12.43
2023-01-20T20:04:11.527Z,11.53
2023-01-20T20:06:44.151Z,12.27
2023-01-20T20:09:15.653Z,14.83
2023-01-20T20:11:45.515Z,13.73
2023-01-20T20:14:15.204Z,17.00
2023-01-20T20:16:43.489Z,16.08
2023-01-20T20:19:14.755Z,17.50
2023-01-20T20:21:42.973Z,12.70
2023-01-20T20:24:13.093Z,15.15
2023-01-20T20:26:41.970Z,16.08
2023-01-20T20:29:11.990Z,14.68
2023-01-20T20:31:40.576Z,15.60
2023-01-20T20:34:10.403Z,17.40
2023-01-20T20:36:38.314Z,19.98
2023-01-20T20:39:07.886Z,18.38
2023-01-20T20:41:36.617Z,20.77
2023-01-20T20:44:04.825Z,16.13
2023-01-20T20:46:34.133Z,15.52
2023-01-20T20:49:02.433Z,17.87
2023-01-20T20:51:31.871Z,17.00
2023-01-20T20:54:01.232Z,19.23
2023-01-20T20:56:32.841Z,16.23
2023-01-20T20:59:04.319Z,16.83
2023-01-20T21:01:34.831Z,16.20
2023-01-20T21:04:03.341Z,15.13
2023-01-20T21:06:32.328Z,18.80
2023-01-20T21:09:00.373Z,20.15
2023-01-20T21:11:28.390Z,16.23
2023-01-20T21:13:56.382Z,15.23
2023-01-20T21:16:26.050Z,17.23
2023-01-20T21:18:57.163Z,16.75
2023-01-20T21:21:26.120Z,19.85
2023-01-20T21:23:55.656Z,18.98
2023-01-20T21:26:24.934Z,18.50
2023-01-20T21:28:53.924Z,18.17
2023-01-20T21:31:23.608Z,19.33
2023-01-20T21:33:54.527Z,19.27
2023-01-20T21:36:24.224Z,19.98
2023-01-20T21:38:52.915Z,18.30
2023-01-20T21:41:21.125Z,18.55
2023-01-20T21:44:07.396Z,17.55
2023-01-20T21:46:39.072Z,18.50
2023-01-20T21:49:25.733Z,19.80
2023-01-20T21:52:13.073Z,16.52
2023-01-20T21:54:41.413Z,16.40
2023-01-20T21:57:10.081Z,20.35
2023-01-20T21:59:40.629Z,18.85
2023-01-20T22:02:09.149Z,18.67
2023-01-20T22:04:37.117Z,18.60
2023-01-20T22:07:06.589Z,17.95
2023-01-20T22:09:34.465Z,21.13
2023-01-20T22:12:02.385Z,18.30
2023-01-20T22:14:32.289Z,18.58
2023-01-20T22:17:00.216Z,19.27
2023-01-20T22:19:28.612Z,16.92
2023-01-20T22:21:57.503Z,16.60
2023-01-20T22:24:27.236Z,17.85
2023-01-20T22:26:55.248Z,17.90
2023-01-20T22:29:23.481Z,19.85
2023-01-20T22:31:52.862Z,18.35
2023-01-20T22:34:21.764Z,17.23
2023-01-20T22:36:49.713Z,14.65
2023-01-20T22:39:17.987Z,21.00
2023-01-20T22:41:47.263Z,16.70
2023-01-20T22:44:15.852Z,16.30
2023-01-20T22:46:43.700Z,18.15
2023-01-20T22:49:13.137Z,18.33
2023-01-20T22:51:41.089Z,17.55
2023-01-20T22:54:10.631Z,18.95
2023-01-20T22:56:39.918Z,12.55
2023-01-20T22:59:11.540Z,12.95
2023-01-20T23:01:40.002Z,14.35
2023-01-20T23:04:07.964Z,15.50
2023-01-20T23:06:37.163Z,15.65
2023-01-20T23:09:07.801Z,15.43
2023-01-20T23:11:38.150Z,18.15
2023-01-20T23:14:06.780Z,15.38
2023-01-20T23:16:36.021Z,12.23
2023-01-20T23:19:03.853Z,15.48
2023-01-20T23:21:32.267Z,14.20
2023-01-20T23:24:00.275Z,15.45
2023-01-20T23:26:30.422Z,14.55
2023-01-20T23:28:58.437Z,16.65
2023-01-20T23:31:28.605Z,12.23
2023-01-20T23:33:57.931Z,12.40
2023-01-20T23:36:27.006Z,15.02
2023-01-20T23:38:55.707Z,13.20
2023-01-20T23:41:24.403Z,13.13
2023-01-20T23:43:52.361Z,16.77
2023-01-20T23:46:20.297Z,11.75
2023-01-20T23:48:48.584Z,13.00
2023-01-20T23:51:18.402Z,13.85
2023-01-20T23:53:46.420Z,16.40
2023-01-20T23:56:16.187Z,16.13
2023-01-20T23:58:44.178Z,14.35
